Time;durP1;ratioP1;P1;durP2;ratioP2;P2;SDS_P1;SDS_P2;PMS_P1;PMS_P2;Temp;Humidity;BMP_temperature;BMP_pressure;BME280_temperature;BME280_humidity;BME280_pressure;Samples;Min_cycle;Max_cycle;Signal;HPM_P1;HPM_P2
2021/03/26 00:00:47;;;;;;;29.52;13.45;;;7.00;99.90;;;;;;5131545;27;20035;-52
2021/03/26 00:03:21;;;;;;;32.65;15.05;;;7.00;99.90;;;;;;5123901;27;20059;-50
2021/03/26 00:05:48;;;;;;;33.47;13.57;;;7.00;99.90;;;;;;5127332;27;20028;-55
2021/03/26 00:08:16;;;;;;;29.05;14.70;;;7.00;99.90;;;;;;5128330;27;20069;-52
2021/03/26 00:10:42;;;;;;;25.42;14.73;;;7.10;99.90;;;;;;5129542;27;20050;-54
2021/03/26 00:13:08;;;;;;;29.65;14.40;;;7.10;99.90;;;;;;5129455;27;20031;-54
2021/03/26 00:15:35;;;;;;;29.27;14.68;;;7.10;99.90;;;;;;5130398;27;20045;-51
2021/03/26 00:18:02;;;;;;;35.53;16.30;;;7.20;99.90;;;;;;5130727;27;20031;-55
2021/03/26 00:20:27;;;;;;;31.40;16.13;;;7.20;99.90;;;;;;5122001;27;20031;-55
2021/03/26 00:22:53;;;;;;;26.80;14.60;;;7.30;99.90;;;;;;5131087;27;20034;-52
2021/03/26 00:25:19;;;;;;;36.72;14.82;;;7.30;99.90;;;;;;5131576;27;20122;-53
2021/03/26 00:27:44;;;;;;;31.45;16.65;;;7.30;99.90;;;;;;5130757;27;20677;-54
2021/03/26 00:30:11;;;;;;;31.45;15.55;;;7.30;99.90;;;;;;5126278;27;20015;-55
2021/03/26 00:32:38;;;;;;;26.70;13.98;;;7.30;99.90;;;;;;5129819;27;20023;-52
2021/03/26 00:35:06;;;;;;;33.80;14.98;;;7.30;99.90;;;;;;5130919;27;20034;-53
2021/03/26 00:37:32;;;;;;;29.08;14.02;;;7.20;99.90;;;;;;5131273;27;20389;-52
2021/03/26 00:39:57;;;;;;;29.77;14.05;;;7.20;99.90;;;;;;5130763;27;20064;-55
2021/03/26 00:42:23;;;;;;;32.53;15.05;;;7.10;99.90;;;;;;5126054;27;20077;-53
2021/03/26 00:44:49;;;;;;;33.78;16.27;;;7.10;99.90;;;;;;5125756;27;20038;-54
2021/03/26 00:47:14;;;;;;;32.20;16.30;;;7.10;99.90;;;;;;5131616;27;20079;-52
2021/03/26 00:49:40;;;;;;;36.42;17.20;;;7.10;99.90;;;;;;5129709;27;20393;-53
2021/03/26 00:52:06;;;;;;;30.83;15.02;;;7.00;99.90;;;;;;5130477;27;20042;-54
2021/03/26 00:54:32;;;;;;;33.60;14.63;;;7.00;99.90;;;;;;5128708;27;20023;-52
2021/03/26 00:56:58;;;;;;;37.42;15.50;;;6.90;99.90;;;;;;5130604;27;20068;-54
2021/03/26 00:59:23;;;;;;;27.92;15.95;;;6.90;99.90;;;;;;5122788;27;20035;-52
2021/03/26 01:01:49;;;;;;;28.40;15.95;;;6.90;99.90;;;;;;5130538;27;20055;-53
2021/03/26 01:04:15;;;;;;;28.88;15.60;;;6.80;99.90;;;;;;5129612;27;20027;-54
2021/03/26 01:06:41;;;;;;;32.65;16.60;;;6.70;99.90;;;;;;5126252;27;20019;-52
2021/03/26 01:09:08;;;;;;;37.47;18.00;;;6.70;99.90;;;;;;5120239;27;20031;-54
2021/03/26 01:11:36;;;;;;;33.13;18.00;;;6.60;99.90;;;;;;5123717;27;20495;-52
2021/03/26 01:14:05;;;;;;;37.20;18.25;;;6.60;99.90;;;;;;5122668;27;20029;-50
2021/03/26 01:16:31;;;;;;;42.15;20.08;;;6.70;99.90;;;;;;5118407;27;20050;-52
2021/03/26 01:18:57;;;;;;;35.75;17.52;;;6.70;99.90;;;;;;5126208;27;20113;-50
2021/03/26 01:21:28;;;;;;;27.08;15.23;;;6.70;99.90;;;;;;5130210;27;20684;-54
2021/03/26 01:23:54;;;;;;;33.08;16.02;;;6.70;99.90;;;;;;5125755;27;20110;-51
2021/03/26 01:26:20;;;;;;;36.10;17.55;;;6.50;99.90;;;;;;5130559;27;20098;-54
2021/03/26 01:28:46;;;;;;;33.95;17.13;;;6.40;99.90;;;;;;5126081;27;20030;-52
2021/03/26 01:31:12;;;;;;;35.45;18.13;;;6.40;99.90;;;;;;5124511;27;20524;-54
2021/03/26 01:33:38;;;;;;;36.58;17.02;;;6.30;99.90;;;;;;5129190;27;20051;-55
2021/03/26 01:36:04;;;;;;;36.67;18.08;;;6.30;99.90;;;;;;5124243;27;20023;-51
2021/03/26 01:38:31;;;;;;;38.95;18.83;;;6.20;99.90;;;;;;5124965;27;20026;-52
2021/03/26 01:41:02;;;;;;;35.25;17.60;;;6.20;99.90;;;;;;5118614;27;20504;-53
2021/03/26 01:43:31;;;;;;;39.42;17.27;;;6.20;99.90;;;;;;5126690;27;20027;-54
2021/03/26 01:45:57;;;;;;;35.83;18.30;;;6.10;99.90;;;;;;5123858;27;20091;-50
2021/03/26 01:48:31;;;;;;;36.28;19.60;;;6.10;99.90;;;;;;5126106;27;20019;-54
2021/03/26 01:50:59;;;;;;;35.97;18.95;;;6.20;99.90;;;;;;5124275;27;20023;-52
2021/03/26 01:53:25;;;;;;;36.17;18.80;;;6.20;99.90;;;;;;5128121;27;20437;-52
2021/03/26 01:55:52;;;;;;;34.70;18.38;;;6.30;99.90;;;;;;5129264;27;20079;-54
2021/03/26 01:58:22;;;;;;;46.15;21.00;;;6.40;99.90;;;;;;5121683;27;20040;-52
2021/03/26 02:00:51;;;;;;;41.33;19.85;;;6.40;99.90;;;;;;5127790;27;20136;-52
2021/03/26 02:03:33;;;;;;;46.05;22.15;;;6.40;99.90;;;;;;5129464;27;20027;-51
2021/03/26 02:06:05;;;;;;;41.80;20.63;;;6.40;99.90;;;;;;5125591;28;20031;-50
2021/03/26 02:08:34;;;;;;;43.55;23.40;;;6.50;99.90;;;;;;5123541;28;20015;-50
2021/03/26 02:11:05;;;;;;;43.42;24.00;;;6.50;99.90;;;;;;5125722;28;20023;-54
2021/03/26 02:13:34;;;;;;;41.63;22.00;;;6.50;99.90;;;;;;5130195;28;20507;-55
2021/03/26 02:16:01;;;;;;;42.42;21.00;;;6.50;99.90;;;;;;5120080;28;20031;-56
2021/03/26 02:18:35;;;;;;;41.90;19.08;;;6.50;99.90;;;;;;5124196;28;20031;-53
2021/03/26 02:21:08;;;;;;;46.15;20.08;;;6.40;99.90;;;;;;5129543;28;20031;-51
2021/03/26 02:23:38;;;;;;;30.80;17.08;;;6.30;99.90;;;;;;5129824;28;20027;-50
2021/03/26 02:26:10;;;;;;;40.88;19.95;;;6.10;99.90;;;;;;5125564;27;20027;-51
2021/03/26 02:28:35;;;;;;;38.42;19.08;;;6.10;99.90;;;;;;5123393;27;20026;-50
2021/03/26 02:31:01;;;;;;;40.97;20.58;;;5.90;99.90;;;;;;5129516;27;20015;-51
2021/03/26 02:33:27;;;;;;;40.25;20.13;;;5.80;99.90;;;;;;5125690;27;20501;-52
2021/03/26 02:36:18;;;;;;;43.67;19.63;;;5.80;99.90;;;;;;5126399;27;20023;-54
2021/03/26 02:38:57;;;;;;;42.47;21.42;;;5.70;99.90;;;;;;5126877;27;20058;-50
2021/03/26 02:41:39;;;;;;;38.25;20.95;;;5.70;99.90;;;;;;5125892;27;20035;-51
2021/03/26 02:44:35;;;;;;;49.15;23.08;;;5.70;99.90;;;;;;5128233;27;20046;-53
2021/03/26 02:47:23;;;;;;;51.78;24.58;;;5.70;99.90;;;;;;5127814;27;20038;-50
2021/03/26 02:49:49;;;;;;;49.53;23.42;;;5.70;99.90;;;;;;5133646;27;20050;-50
2021/03/26 02:52:48;;;;;;;55.13;27.05;;;5.70;99.90;;;;;;5133655;27;20480;-52
2021/03/26 02:55:24;;;;;;;55.47;25.35;;;5.70;99.90;;;;;;5133771;27;20069;-52
2021/03/26 02:57:58;;;;;;;51.10;25.20;;;5.60;99.90;;;;;;5130687;27;20106;-50
2021/03/26 03:00:50;;;;;;;57.83;26.63;;;5.70;99.90;;;;;;5126847;27;20031;-53
2021/03/26 03:03:21;;;;;;;55.35;26.30;;;5.70;99.90;;;;;;5125066;27;20088;-51
2021/03/26 03:05:53;;;;;;;53.63;25.92;;;5.70;99.90;;;;;;5132457;27;20055;-52
2021/03/26 03:08:26;;;;;;;48.15;24.98;;;5.80;99.90;;;;;;5133648;27;20026;-50
2021/03/26 03:10:53;;;;;;;54.20;25.00;;;5.80;99.90;;;;;;5123613;27;20023;-51
2021/03/26 03:13:22;;;;;;;48.67;22.10;;;5.70;99.90;;;;;;5127918;27;20541;-51
2021/03/26 03:16:04;;;;;;;49.10;23.75;;;5.60;99.90;;;;;;5124416;27;20152;-53
2021/03/26 03:18:39;;;;;;;49.03;23.88;;;5.50;99.90;;;;;;5130293;27;20399;-53
2021/03/26 03:21:36;;;;;;;43.67;21.33;;;5.40;99.90;;;;;;5132042;27;20027;-50
2021/03/26 03:24:09;;;;;;;43.92;21.63;;;5.30;99.90;;;;;;5119154;27;20042;-50
2021/03/26 03:26:50;;;;;;;47.42;23.92;;;5.20;99.90;;;;;;5124055;27;20037;-50
2021/03/26 03:29:39;;;;;;;44.50;24.38;;;5.20;99.90;;;;;;5128910;27;20494;-53
2021/03/26 03:32:32;;;;;;;55.85;25.35;;;5.10;99.90;;;;;;5126771;27;20027;-53
2021/03/26 03:35:07;;;;;;;59.13;27.30;;;5.10;99.90;;;;;;5132541;27;20031;-54
2021/03/26 03:37:47;;;;;;;55.65;25.85;;;5.10;99.90;;;;;;5131733;27;20358;-53
2021/03/26 03:40:28;;;;;;;58.60;27.88;;;5.10;99.90;;;;;;5129772;27;20050;-53
2021/03/26 03:43:09;;;;;;;57.15;25.60;;;5.00;99.90;;;;;;5128186;27;20393;-53
2021/03/26 03:46:02;;;;;;;55.83;28.70;;;5.00;99.90;;;;;;5126303;27;20076;-51
2021/03/26 03:48:31;;;;;;;59.40;27.10;;;5.10;99.90;;;;;;5128005;27;20064;-53
2021/03/26 03:51:15;;;;;;;58.38;26.45;;;5.10;99.90;;;;;;5128775;27;20020;-55
2021/03/26 03:53:49;;;;;;;41.60;19.00;;;5.20;99.90;;;;;;5123210;27;20042;-51
2021/03/26 03:56:39;;;;;;;51.92;27.20;;;5.10;99.90;;;;;;5131284;27;20092;-54
2021/03/26 03:59:20;;;;;;;64.60;27.70;;;5.10;99.90;;;;;;5125131;27;20031;-56
2021/03/26 04:01:53;;;;;;;50.75;27.77;;;5.10;99.90;;;;;;5120238;27;20369;-52
2021/03/26 04:04:26;;;;;;;61.10;28.27;;;5.10;99.90;;;;;;5123547;27;20041;-54
2021/03/26 04:06:56;;;;;;;57.05;27.15;;;5.10;99.90;;;;;;5125756;27;20019;-49
2021/03/26 04:09:28;;;;;;;54.15;26.17;;;5.10;99.90;;;;;;5120311;27;20431;-50
2021/03/26 04:12:08;;;;;;;58.08;29.33;;;5.10;99.90;;;;;;5131192;27;20019;-51
2021/03/26 04:14:54;;;;;;;57.03;28.08;;;5.10;99.90;;;;;;5127436;27;20023;-53
2021/03/26 04:17:31;;;;;;;56.35;26.90;;;5.20;99.90;;;;;;5125572;27;20419;-53
2021/03/26 04:20:03;;;;;;;63.08;26.63;;;5.20;99.90;;;;;;5131026;27;20031;-52
2021/03/26 04:22:32;;;;;;;58.10;28.48;;;5.20;99.90;;;;;;5114266;27;20551;-52
2021/03/26 04:25:06;;;;;;;61.97;28.02;;;5.20;99.90;;;;;;5129602;27;20039;-54
2021/03/26 04:27:37;;;;;;;58.73;27.93;;;5.20;99.90;;;;;;5130583;27;20084;-51
2021/03/26 04:30:10;;;;;;;53.55;27.85;;;5.20;99.90;;;;;;5126386;27;20558;-51
2021/03/26 04:32:36;;;;;;;56.03;27.02;;;5.20;99.90;;;;;;5126566;27;20031;-51
2021/03/26 04:35:04;;;;;;;72.05;29.92;;;5.20;99.90;;;;;;5127808;27;20110;-53
2021/03/26 04:37:58;;;;;;;52.53;26.52;;;5.20;99.90;;;;;;5126948;27;20422;-52
2021/03/26 04:40:28;;;;;;;60.72;28.05;;;5.20;99.90;;;;;;5131005;27;20396;-50
2021/03/26 04:43:09;;;;;;;60.88;25.92;;;5.20;99.90;;;;;;5130170;27;20030;-54
2021/03/26 04:45:53;;;;;;;57.55;27.13;;;5.20;99.90;;;;;;5123454;27;20484;-52
2021/03/26 04:48:22;;;;;;;57.10;24.60;;;5.20;99.90;;;;;;5124852;27;20019;-51
2021/03/26 04:51:11;;;;;;;61.13;28.17;;;5.20;99.90;;;;;;5123448;27;20110;-54
2021/03/26 04:53:48;;;;;;;57.08;26.48;;;5.20;99.90;;;;;;5124151;27;20513;-53
2021/03/26 04:56:21;;;;;;;57.70;27.95;;;5.20;99.90;;;;;;5119509;27;20062;-51
2021/03/26 04:58:51;;;;;;;60.42;28.30;;;5.20;99.90;;;;;;5127965;27;20544;-54
2021/03/26 05:01:18;;;;;;;62.60;29.52;;;5.10;99.90;;;;;;5120979;27;20036;-54
2021/03/26 05:04:07;;;;;;;55.33;27.52;;;5.10;99.90;;;;;;5129553;27;20023;-53
2021/03/26 05:06:58;;;;;;;64.47;30.58;;;5.10;99.90;;;;;;5110291;27;20051;-51
2021/03/26 05:09:27;;;;;;;67.13;29.17;;;5.10;99.90;;;;;;5127037;27;20106;-55
2021/03/26 05:11:58;;;;;;;64.68;29.02;;;5.20;99.90;;;;;;5124298;27;20031;-52
2021/03/26 05:14:35;;;;;;;59.40;29.08;;;5.20;99.90;;;;;;5126748;27;20034;-54
2021/03/26 05:17:32;;;;;;;63.28;30.70;;;5.20;99.90;;;;;;5128990;27;20031;-53
2021/03/26 05:20:07;;;;;;;62.88;30.13;;;5.20;99.90;;;;;;5121237;22;20463;-54
2021/03/26 05:22:59;;;;;;;73.03;30.95;;;5.20;99.90;;;;;;5077569;28;20024;-55
2021/03/26 05:25:27;;;;;;;66.35;31.20;;;5.20;99.90;;;;;;5067189;28;20039;-53
2021/03/26 05:27:54;;;;;;;67.60;29.80;;;5.20;99.90;;;;;;5089618;28;20093;-52
2021/03/26 05:30:45;;;;;;;68.78;31.77;;;5.20;99.90;;;;;;5092088;28;20051;-52
2021/03/26 05:33:33;;;;;;;77.45;32.80;;;5.30;99.90;;;;;;5088370;28;20450;-52
2021/03/26 05:36:18;;;;;;;71.60;33.88;;;5.30;99.90;;;;;;5081405;28;20352;-52
2021/03/26 05:38:58;;;;;;;66.30;31.80;;;5.30;99.90;;;;;;5077437;28;20035;-52
2021/03/26 05:41:56;;;;;;;68.82;32.65;;;5.40;99.90;;;;;;5075449;28;20036;-52
2021/03/26 05:44:37;;;;;;;76.72;33.25;;;5.40;99.90;;;;;;5072832;28;20040;-52
2021/03/26 05:47:26;;;;;;;74.90;35.33;;;5.40;99.90;;;;;;5085150;28;20039;-53
2021/03/26 05:50:31;;;;;;;75.15;34.78;;;5.50;99.90;;;;;;5087381;28;20066;-54
2021/03/26 05:53:24;;;;;;;81.35;36.25;;;5.50;99.90;;;;;;5092139;28;20020;-53
2021/03/26 05:55:59;;;;;;;70.80;34.13;;;5.50;99.90;;;;;;5080074;28;20525;-53
2021/03/26 05:58:43;;;;;;;73.45;34.40;;;5.50;99.90;;;;;;5079476;28;20039;-54
2021/03/26 06:01:24;;;;;;;64.93;33.55;;;5.60;99.90;;;;;;5084332;28;20075;-52
2021/03/26 06:04:23;;;;;;;86.72;40.00;;;5.60;99.90;;;;;;5088871;28;20552;-52
2021/03/26 06:06:48;;;;;;;77.10;37.45;;;5.60;99.90;;;;;;5096427;28;20044;-54
2021/03/26 06:09:32;;;;;;;88.20;35.95;;;5.70;99.90;;;;;;5078870;28;20643;-54
2021/03/26 06:12:23;;;;;;;77.60;37.72;;;5.80;99.90;;;;;;5090421;28;20466;-52
2021/03/26 06:15:06;;;;;;;83.22;37.75;;;5.80;99.90;;;;;;5080379;28;20112;-53
2021/03/26 06:17:54;;;;;;;83.97;39.25;;;5.90;99.90;;;;;;5079296;28;20021;-53
2021/03/26 06:20:54;;;;;;;73.80;36.03;;;6.00;99.90;;;;;;5080492;28;20124;-55
2021/03/26 06:23:31;;;;;;;78.38;35.53;;;6.10;99.90;;;;;;5073600;28;20028;-54
2021/03/26 06:26:15;;;;;;;84.10;38.55;;;6.10;99.90;;;;;;5096143;28;20425;-54
2021/03/26 06:28:50;;;;;;;83.65;40.67;;;6.20;99.90;;;;;;5080406;28;20036;-53
2021/03/26 06:31:34;;;;;;;;;;;6.30;99.90;;;;;;5095596;28;20036;-52
2021/03/26 06:34:18;;;;;;;95.60;42.60;;;6.40;99.90;;;;;;5082896;28;19914;-55
2021/03/26 06:36:59;;;;;;;83.00;42.38;;;6.50;99.90;;;;;;5087523;28;20413;-53
2021/03/26 06:39:52;;;;;;;94.35;42.88;;;6.60;99.90;;;;;;5083976;28;20080;-53
2021/03/26 06:42:43;;;;;;;83.35;41.03;;;6.70;99.90;;;;;;5084042;28;20024;-53
2021/03/26 06:45:15;;;;;;;89.85;44.78;;;6.80;99.90;;;;;;5099848;28;20035;-52
2021/03/26 06:48:12;;;;;;;93.43;42.97;;;7.00;99.90;;;;;;5075531;28;20107;-52
2021/03/26 06:50:46;;;;;;;83.32;41.15;;;7.10;99.90;;;;;;5081866;28;20028;-52
2021/03/26 06:53:34;;;;;;;;;;;7.20;99.90;;;;;;5085435;28;20020;-52
2021/03/26 06:56:22;;;;;;;82.53;40.88;;;7.30;99.90;;;;;;5084629;28;19916;-55
2021/03/26 06:58:59;;;;;;;88.07;41.67;;;7.40;99.90;;;;;;5076267;28;20036;-52
2021/03/26 07:01:37;;;;;;;82.47;41.22;;;7.50;99.90;;;;;;5082460;28;20115;-53
2021/03/26 07:04:27;;;;;;;83.47;41.33;;;7.70;99.90;;;;;;5085789;28;20102;-53
2021/03/26 07:07:21;;;;;;;90.57;41.53;;;7.80;99.90;;;;;;5074746;28;20054;-53
2021/03/26 07:10:24;;;;;;;77.65;38.38;;;7.90;99.90;;;;;;5080525;28;20021;-52
2021/03/26 07:13:21;;;;;;;77.30;37.85;;;8.00;99.90;;;;;;5088813;28;20055;-55
2021/03/26 07:15:58;;;;;;;80.78;40.83;;;8.20;99.90;;;;;;5065497;28;20025;-53
2021/03/26 07:18:57;;;;;;;81.88;43.03;;;8.30;99.90;;;;;;5085693;28;20398;-52
2021/03/26 07:21:54;;;;;;;79.65;39.58;;;8.40;99.90;;;;;;5093133;28;20035;-52
2021/03/26 07:24:34;;;;;;;73.85;40.78;;;8.50;99.90;;;;;;5085731;28;20031;-53
2021/03/26 07:27:12;;;;;;;84.32;39.70;;;8.60;99.90;;;;;;5090292;28;20085;-52
2021/03/26 07:29:59;;;;;;;81.22;40.20;;;8.70;99.90;;;;;;5092105;28;20095;-52
2021/03/26 07:32:32;;;;;;;78.40;38.55;;;8.80;99.90;;;;;;5094548;28;20019;-55
2021/03/26 07:35:06;;;;;;;81.53;37.95;;;8.90;99.90;;;;;;5092352;28;20036;-52
2021/03/26 07:38:04;;;;;;;81.63;40.78;;;9.00;99.90;;;;;;5093939;28;20035;-54
2021/03/26 07:41:15;;;;;;;77.43;38.90;;;9.10;99.90;;;;;;5081400;28;20051;-55
2021/03/26 07:43:59;;;;;;;90.40;39.80;;;9.30;99.90;;;;;;5070302;28;20482;-53
2021/03/26 07:46:51;;;;;;;81.30;42.00;;;9.30;99.90;;;;;;5088424;28;20077;-53
2021/03/26 07:49:43;;;;;;;80.65;40.17;;;9.50;99.90;;;;;;5086805;28;21139;-55
2021/03/26 07:52:33;;;;;;;81.90;39.78;;;9.70;99.90;;;;;;5090516;28;20043;-55
2021/03/26 07:55:11;;;;;;;79.30;39.17;;;9.80;99.90;;;;;;5089627;28;20069;-52
2021/03/26 07:58:05;;;;;;;72.80;39.60;;;10.00;99.90;;;;;;5083488;28;20032;-54
2021/03/26 08:00:39;;;;;;;74.80;37.20;;;10.10;99.90;;;;;;5087238;28;20567;-54
2021/03/26 08:03:11;;;;;;;80.35;39.45;;;10.20;99.90;;;;;;5087754;28;20054;-55
2021/03/26 08:05:47;;;;;;;71.90;36.53;;;10.20;99.90;;;;;;5082952;28;20521;-53
2021/03/26 08:08:44;;;;;;;77.78;38.55;;;10.30;99.90;;;;;;5087037;28;20039;-52
2021/03/26 08:11:30;;;;;;;72.72;37.35;;;10.40;99.90;;;;;;5088378;28;20469;-53
2021/03/26 08:14:27;;;;;;;72.22;36.17;;;10.50;99.90;;;;;;5088664;28;20032;-54
2021/03/26 08:17:08;;;;;;;68.18;35.30;;;10.70;99.90;;;;;;5080821;28;20020;-53
2021/03/26 08:19:52;;;;;;;67.97;34.65;;;10.80;99.90;;;;;;5089354;28;20055;-54
2021/03/26 08:22:31;;;;;;;71.90;35.63;;;11.00;99.90;;;;;;5098055;28;20052;-52
2021/03/26 08:25:06;;;;;;;68.40;34.00;;;11.00;99.90;;;;;;5075798;28;20050;-54
2021/03/26 08:28:02;;;;;;;65.85;34.70;;;11.10;99.90;;;;;;5082159;28;20020;-53
2021/03/26 08:30:52;;;;;;;66.13;33.55;;;11.20;99.90;;;;;;5088234;28;20066;-54
2021/03/26 08:33:23;;;;;;;58.17;29.55;;;11.30;99.90;;;;;;5085387;28;20028;-55
2021/03/26 08:36:14;;;;;;;67.43;35.05;;;11.40;99.90;;;;;;5089606;28;20028;-50
2021/03/26 08:39:22;;;;;;;66.38;32.92;;;11.60;99.90;;;;;;5086234;28;20056;-55
2021/03/26 08:42:01;;;;;;;56.72;31.10;;;11.70;99.90;;;;;;5077950;28;20044;-55
2021/03/26 08:44:29;;;;;;;51.28;29.02;;;11.80;99.90;;;;;;5088993;28;20035;-51
2021/03/26 08:46:58;;;;;;;50.72;29.15;;;11.90;99.90;;;;;;5089716;28;20123;-51
2021/03/26 08:49:23;;;;;;;61.92;31.35;;;11.90;99.90;;;;;;5079829;28;20051;-52
2021/03/26 08:52:13;;;;;;;58.10;31.92;;;12.00;99.90;;;;;;5084346;28;20780;-53
2021/03/26 08:55:13;;;;;;;56.92;29.83;;;12.10;99.90;;;;;;5081184;28;20016;-54
2021/03/26 08:57:56;;;;;;;61.25;28.45;;;12.20;99.90;;;;;;5083082;28;20024;-54
2021/03/26 09:00:49;;;;;;;52.08;27.23;;;12.20;99.90;;;;;;5093897;28;20031;-52
2021/03/26 09:03:44;;;;;;;45.80;23.70;;;12.40;99.90;;;;;;5083691;28;20024;-53
2021/03/26 09:06:26;;;;;;;47.22;26.48;;;12.50;99.90;;;;;;5086072;28;20035;-54
2021/03/26 09:09:10;;;;;;;51.17;28.10;;;12.60;99.90;;;;;;5085964;28;20051;-53
2021/03/26 09:12:17;;;;;;;48.50;25.95;;;12.70;99.90;;;;;;5083414;28;20073;-55
2021/03/26 09:15:20;;;;;;;48.75;25.58;;;12.80;99.90;;;;;;5047601;28;20032;-53
2021/03/26 09:18:21;;;;;;;51.90;27.45;;;12.90;99.90;;;;;;5087170;28;20394;-55
2021/03/26 09:21:08;;;;;;;50.75;28.30;;;13.00;99.90;;;;;;5017519;28;20501;-53
2021/03/26 09:23:54;;;;;;;56.47;27.83;;;13.10;99.90;;;;;;5081096;28;20020;-52
2021/03/26 09:26:47;;;;;;;55.47;27.65;;;13.10;99.90;;;;;;5076591;28;20735;-53
2021/03/26 09:29:28;;;;;;;53.95;26.77;;;13.10;99.90;;;;;;5085812;28;20379;-51
2021/03/26 09:32:14;;;;;;;46.75;24.38;;;13.00;99.90;;;;;;5084816;28;20449;-51
2021/03/26 09:34:45;;;;;;;47.15;25.48;;;13.00;99.90;;;;;;5074779;28;20032;-51
2021/03/26 09:37:24;;;;;;;33.65;18.90;;;13.20;99.90;;;;;;5082134;28;20032;-51
2021/03/26 09:39:56;;;;;;;36.22;19.10;;;13.40;99.90;;;;;;5084464;28;20047;-52
2021/03/26 09:42:33;;;;;;;38.67;21.08;;;13.30;99.90;;;;;;5082288;28;20020;-51
2021/03/26 09:45:05;;;;;;;34.38;18.70;;;13.40;99.90;;;;;;5084064;28;20590;-53
2021/03/26 09:47:54;;;;;;;31.13;18.77;;;13.60;99.90;;;;;;5083841;28;20020;-53
2021/03/26 09:50:35;;;;;;;37.95;19.17;;;13.80;99.90;;;;;;5066217;28;20032;-53
2021/03/26 09:53:12;;;;;;;29.48;15.57;;;14.00;99.90;;;;;;5084165;28;20016;-52
2021/03/26 09:55:40;;;;;;;25.77;13.40;;;14.30;99.90;;;;;;5082197;28;20494;-55
2021/03/26 09:58:30;;;;;;;24.25;11.45;;;14.40;99.90;;;;;;5089209;28;20099;-54
2021/03/26 10:01:06;;;;;;;19.95;9.50;;;14.60;99.90;;;;;;5082628;28;20111;-55
2021/03/26 10:03:54;;;;;;;18.23;8.48;;;14.80;99.90;;;;;;5081012;28;20028;-54
2021/03/26 10:06:54;;;;;;;13.32;7.45;;;14.70;99.90;;;;;;5090873;28;20023;-54
2021/03/26 10:09:31;;;;;;;15.60;7.80;;;14.90;99.90;;;;;;5082711;28;20426;-54
2021/03/26 10:12:19;;;;;;;14.70;8.30;;;14.80;99.90;;;;;;5086422;28;20020;-53
2021/03/26 10:15:05;;;;;;;13.63;8.90;;;14.40;99.90;;;;;;5090628;28;20039;-54
2021/03/26 10:17:37;;;;;;;14.45;7.57;;;14.50;99.90;;;;;;5084036;28;20034;-54
2021/03/26 10:20:26;;;;;;;14.48;7.82;;;14.70;99.90;;;;;;5088131;28;20551;-54
2021/03/26 10:23:27;;;;;;;20.20;10.52;;;15.00;99.90;;;;;;5065860;28;20028;-52
2021/03/26 10:26:05;;;;;;;16.38;7.55;;;15.00;99.90;;;;;;5049783;28;20549;-55
2021/03/26 10:28:33;;;;;;;15.77;7.47;;;15.10;99.90;;;;;;5083502;28;20032;-52
2021/03/26 10:31:15;;;;;;;12.43;6.65;;;15.20;99.90;;;;;;5083282;28;20023;-54
2021/03/26 10:33:54;;;;;;;17.58;6.72;;;15.20;99.90;;;;;;5084311;28;20423;-52
2021/03/26 10:36:24;;;;;;;14.43;6.65;;;15.40;99.90;;;;;;5082484;28;20035;-52
2021/03/26 10:39:14;;;;;;;9.85;5.80;;;15.60;99.90;;;;;;5081543;28;20494;-52
2021/03/26 10:42:00;;;;;;;17.67;5.70;;;15.60;99.90;;;;;;5083615;28;20080;-52
2021/03/26 10:44:47;;;;;;;13.80;5.45;;;15.80;99.90;;;;;;5091260;28;20028;-52
2021/03/26 10:47:27;;;;;;;11.57;5.88;;;15.80;99.90;;;;;;5085878;28;20031;-53
2021/03/26 10:50:02;;;;;;;12.57;5.72;;;15.90;99.90;;;;;;5092004;28;20490;-52
2021/03/26 10:52:44;;;;;;;11.13;7.00;;;15.90;99.90;;;;;;5087103;28;20513;-53
2021/03/26 10:55:22;;;;;;;15.25;6.70;;;15.60;99.90;;;;;;5091857;28;20060;-52
2021/03/26 10:58:00;;;;;;;16.65;6.88;;;15.30;99.90;;;;;;5081338;28;20160;-54
2021/03/26 11:00:39;;;;;;;14.07;7.38;;;15.50;99.90;;;;;;5068892;28;20028;-52
2021/03/26 11:03:57;;;;;;;14.30;7.35;;;15.60;99.90;;;;;;5092590;28;20417;-54
2021/03/26 11:06:25;;;;;;;15.50;7.60;;;15.60;99.90;;;;;;4998169;28;20030;-54
2021/03/26 11:08:57;;;;;;;12.27;6.18;;;16.00;99.90;;;;;;5003262;28;20026;-54
2021/03/26 11:11:26;;;;;;;14.38;5.88;;;16.50;99.90;;;;;;5052211;28;20040;-52
2021/03/26 11:14:23;;;;;;;15.85;6.72;;;16.90;99.90;;;;;;5084116;28;20013;-53
2021/03/26 11:17:17;;;;;;;14.80;7.82;;;17.40;99.90;;;;;;5089413;28;20031;-54
2021/03/26 11:19:58;;;;;;;12.82;6.82;;;17.10;99.90;;;;;;5102912;22;20032;-54
2021/03/26 11:22:29;;;;;;;13.13;8.18;;;16.80;99.90;;;;;;5088959;28;21254;-54
2021/03/26 11:25:29;;;;;;;14.82;8.23;;;16.30;99.90;;;;;;5091384;28;20028;-54
2021/03/26 11:27:57;;;;;;;12.98;6.80;;;16.20;99.90;;;;;;5069630;28;20039;-51
2021/03/26 11:30:47;;;;;;;14.52;7.25;;;16.30;99.90;;;;;;5088908;28;20478;-54
2021/03/26 11:33:41;;;;;;;20.02;8.43;;;16.50;99.90;;;;;;5090340;28;20560;-51
2021/03/26 11:36:32;;;;;;;11.15;7.75;;;16.10;99.90;;;;;;5091099;28;20028;-52
2021/03/26 11:39:04;;;;;;;10.50;6.40;;;16.20;99.90;;;;;;5091004;28;20032;-53
2021/03/26 11:41:47;;;;;;;13.70;7.32;;;16.00;99.90;;;;;;5085010;28;20031;-51
2021/03/26 11:44:15;;;;;;;11.30;6.72;;;16.30;99.90;;;;;;5088866;28;20574;-54
2021/03/26 11:46:50;;;;;;;12.38;7.00;;;16.40;99.90;;;;;;5087316;28;20035;-54
2021/03/26 11:49:22;;;;;;;12.77;6.55;;;16.50;99.90;;;;;;5087396;28;20028;-55
2021/03/26 11:52:16;;;;;;;12.10;7.05;;;17.00;99.90;;;;;;5086366;28;20089;-57
2021/03/26 11:55:12;;;;;;;10.55;6.65;;;17.10;99.90;;;;;;5091528;28;20031;-52
2021/03/26 11:58:10;;;;;;;13.45;7.03;;;17.10;99.90;;;;;;5087741;28;20351;-54
2021/03/26 12:00:39;;;;;;;14.65;7.63;;;16.60;99.90;;;;;;5056976;28;20032;-52
2021/03/26 12:03:33;;;;;;;12.10;6.63;;;16.40;99.90;;;;;;5089608;28;20032;-52
2021/03/26 12:06:01;;;;;;;18.00;7.70;;;16.10;99.90;;;;;;5089433;28;20034;-55
2021/03/26 12:09:18;;;;;;;11.50;7.40;;;16.00;99.90;;;;;;5091034;28;20023;-54
2021/03/26 12:12:00;;;;;;;11.77;7.28;;;16.00;99.90;;;;;;5029833;28;20497;-53
2021/03/26 12:14:40;;;;;;;15.10;7.07;;;16.20;99.90;;;;;;5090194;28;20461;-56
2021/03/26 12:17:29;;;;;;;10.27;6.57;;;16.10;99.90;;;;;;5089498;28;20090;-54
2021/03/26 12:20:28;;;;;;;12.93;7.00;;;16.10;99.90;;;;;;5088180;28;20478;-55
2021/03/26 12:22:54;;;;;;;11.23;5.40;;;16.10;99.90;;;;;;5071010;28;20044;-54
2021/03/26 12:25:26;;;;;;;16.83;6.50;;;16.40;99.90;;;;;;5091369;28;20031;-54
2021/03/26 12:27:53;;;;;;;11.05;5.70;;;16.50;99.90;;;;;;5085335;28;20028;-54
2021/03/26 12:30:29;;;;;;;8.35;4.72;;;16.50;99.90;;;;;;5081838;28;20115;-54
2021/03/26 12:33:09;;;;;;;10.18;5.18;;;16.80;99.90;;;;;;5083472;28;20112;-55
2021/03/26 12:36:08;;;;;;;11.75;5.15;;;17.10;99.90;;;;;;5087675;28;20051;-52
2021/03/26 12:38:56;;;;;;;10.50;4.53;;;16.90;99.90;;;;;;5085076;28;20129;-55
2021/03/26 12:41:29;;;;;;;11.50;4.78;;;16.80;99.90;;;;;;5084659;28;20035;-54
2021/03/26 12:44:03;;;;;;;15.27;5.18;;;17.60;99.90;;;;;;5083441;28;20060;-53
2021/03/26 12:46:40;;;;;;;12.88;5.60;;;17.80;99.90;;;;;;5087867;28;20020;-56
2021/03/26 12:49:12;;;;;;;10.10;4.90;;;17.90;99.90;;;;;;5086355;28;20519;-54
2021/03/26 12:51:46;;;;;;;8.75;4.68;;;17.90;99.90;;;;;;5086309;28;20051;-55
2021/03/26 12:54:34;;;;;;;13.02;5.63;;;18.00;99.90;;;;;;5089287;28;20020;-55
2021/03/26 12:57:25;;;;;;;13.90;5.03;;;18.30;99.90;;;;;;5083852;28;20038;-54
2021/03/26 13:00:08;;;;;;;6.50;4.10;;;18.30;99.90;;;;;;5089588;28;20036;-53
2021/03/26 13:02:41;;;;;;;5.72;3.72;;;18.40;99.90;;;;;;5084020;28;20107;-56
2021/03/26 13:05:22;;;;;;;6.78;3.95;;;18.50;99.90;;;;;;5086772;28;20039;-55
2021/03/26 13:07:53;;;;;;;6.90;4.35;;;18.20;99.90;;;;;;5087239;28;20385;-54
2021/03/26 13:10:57;;;;;;;11.00;5.03;;;18.00;99.90;;;;;;5084465;28;20035;-57
2021/03/26 13:13:25;;;;;;;8.02;4.25;;;17.90;99.90;;;;;;5089419;28;20024;-52
2021/03/26 13:16:09;;;;;;;10.38;4.72;;;17.70;99.90;;;;;;5090857;28;20049;-54
2021/03/26 13:18:49;;;;;;;10.90;4.13;;;17.70;99.90;;;;;;5083688;28;20135;-52
2021/03/26 13:21:23;;;;;;;9.60;3.72;;;17.70;99.90;;;;;;5088181;28;20043;-53
2021/03/26 13:24:09;;;;;;;7.45;3.95;;;17.80;99.90;;;;;;5088964;28;20032;-53
2021/03/26 13:26:38;;;;;;;13.45;5.20;;;18.30;99.90;;;;;;5085586;28;20092;-52
2021/03/26 13:29:13;;;;;;;9.52;4.22;;;18.30;99.90;;;;;;5087447;28;20505;-53
2021/03/26 13:31:41;;;;;;;10.25;4.05;;;18.20;99.90;;;;;;5089129;28;20047;-53
2021/03/26 13:34:18;;;;;;;9.90;3.90;;;18.60;99.90;;;;;;5088959;28;20053;-55
2021/03/26 13:36:59;;;;;;;7.50;3.53;;;18.70;99.90;;;;;;5086864;28;20038;-55